Time;durP1;ratioP1;P1;durP2;ratioP2;P2;SDS_P1;SDS_P2;PMS_P1;PMS_P2;Temp;Humidity;BMP_temperature;BMP_pressure;BME280_temperature;BME280_humidity;BME280_pressure;Samples;Min_cycle;Max_cycle;Signal;HPM_P1;HPM_P2
2023/07/29 00:00:21;;;;;;;;;;;18.50;99.90;;;;;;4841814;29;20101;-78
2023/07/29 00:02:47;;;;;;;3.05;2.60;;;18.50;99.90;;;;;;4855135;29;20030;-78
2023/07/29 00:05:12;;;;;;;;;;;18.50;99.90;;;;;;4860952;29;20053;-78
2023/07/29 00:07:38;;;;;;;3.80;3.03;;;18.50;99.90;;;;;;4840066;29;20253;-78
2023/07/29 00:10:04;;;;;;;;;;;18.50;99.90;;;;;;4839995;29;20054;-78
2023/07/29 00:12:29;;;;;;;4.10;3.25;;;18.50;99.90;;;;;;4855095;29;20449;-78
2023/07/29 00:14:55;;;;;;;;;;;18.50;99.90;;;;;;4858898;29;20120;-78
2023/07/29 00:17:21;;;;;;;3.10;2.70;;;18.40;99.90;;;;;;4864678;29;20311;-78
2023/07/29 00:19:46;;;;;;;;;;;18.50;99.90;;;;;;4856837;29;20046;-78
2023/07/29 00:22:12;;;;;;;3.42;3.00;;;18.40;99.90;;;;;;4836104;29;19927;-78
2023/07/29 00:24:39;;;;;;;;;;;18.40;99.90;;;;;;4856929;29;20053;-78
2023/07/29 00:27:05;;;;;;;3.20;2.90;;;18.40;99.90;;;;;;4873361;29;20011;-78
2023/07/29 00:29:30;;;;;;;;;;;18.40;99.90;;;;;;4847782;29;20465;-78
2023/07/29 00:31:56;;;;;;;3.78;3.10;;;18.50;99.90;;;;;;4854517;29;19920;-78
2023/07/29 00:34:21;;;;;;;;;;;18.40;99.90;;;;;;4855266;29;20061;-79
2023/07/29 00:36:47;;;;;;;3.92;3.40;;;18.40;99.90;;;;;;4840708;29;20034;-79
2023/07/29 00:39:13;;;;;;;;;;;18.40;99.90;;;;;;4874063;29;20078;-78
2023/07/29 00:41:39;;;;;;;3.22;2.92;;;18.30;99.90;;;;;;4870666;29;20273;-78
2023/07/29 00:44:05;;;;;;;2.92;2.63;;;18.40;99.90;;;;;;4837424;29;20145;-78
2023/07/29 00:46:31;;;;;;;;;;;18.30;99.90;;;;;;4839767;29;20562;-78
2023/07/29 00:48:57;;;;;;;2.67;2.47;;;18.30;99.90;;;;;;4857823;29;19926;-78
2023/07/29 00:51:22;;;;;;;;;;;18.40;99.90;;;;;;4839328;29;20054;-78
2023/07/29 00:53:48;;;;;;;3.30;2.85;;;18.40;99.90;;;;;;4829308;29;19924;-78
2023/07/29 00:56:13;;;;;;;;;;;18.30;99.90;;;;;;4851718;29;20058;-78
2023/07/29 00:58:39;;;;;;;3.47;3.17;;;18.40;99.90;;;;;;4873042;29;19932;-79
2023/07/29 01:01:05;;;;;;;;;;;18.40;99.90;;;;;;4855170;29;20046;-78
2023/07/29 01:03:31;;;;;;;3.65;3.00;;;18.40;99.90;;;;;;4854469;29;20380;-78
2023/07/29 01:06:13;;;;;;;4.38;3.97;;;18.30;99.90;;;;;;4838903;29;20089;-78
2023/07/29 01:08:45;;;;;;;4.00;3.60;;;18.30;99.90;;;;;;4828887;29;20565;-78
2023/07/29 01:11:20;;;;;;;3.88;3.25;;;18.30;99.90;;;;;;4856612;29;20057;-78
2023/07/29 01:14:07;;;;;;;4.30;3.90;;;18.20;99.90;;;;;;4841967;29;20093;-78
2023/07/29 01:16:55;;;;;;;3.90;3.45;;;18.20;99.90;;;;;;4838882;29;20402;-78
2023/07/29 01:19:49;;;;;;;4.07;3.53;;;18.30;99.90;;;;;;4835315;29;20129;-78
2023/07/29 01:22:16;;;;;;;4.03;3.63;;;18.10;99.90;;;;;;4833141;29;20053;-79
2023/07/29 01:24:42;;;;;;;3.50;3.20;;;18.10;99.90;;;;;;4829444;29;20494;-78
2023/07/29 01:27:07;;;;;;;;;;;18.20;99.90;;;;;;4826006;29;20053;-78
2023/07/29 01:29:33;;;;;;;4.30;3.65;;;18.20;99.90;;;;;;4839024;29;19920;-78
2023/07/29 01:32:03;;;;;;;;;;;18.10;99.90;;;;;;4823998;29;20435;-79
2023/07/29 01:34:39;;;;;;;3.83;3.30;;;18.00;99.90;;;;;;4835336;29;19939;-78
2023/07/29 01:37:09;;;;;;;3.93;3.47;;;18.00;99.90;;;;;;4829870;29;20093;-78
2023/07/29 01:39:37;;;;;;;3.45;3.15;;;18.00;99.90;;;;;;4858410;29;20057;-79
2023/07/29 01:42:03;;;;;;;3.40;3.10;;;18.10;99.90;;;;;;4838201;29;20046;-78
2023/07/29 01:44:29;;;;;;;;;;;18.00;99.90;;;;;;4838832;29;20048;-78
2023/07/29 01:46:59;;;;;;;3.90;3.33;;;18.00;99.90;;;;;;4841820;29;19931;-79
2023/07/29 01:49:25;;;;;;;3.92;3.53;;;17.90;99.90;;;;;;4831736;29;20056;-78
2023/07/29 01:51:50;;;;;;;;;;;17.80;99.90;;;;;;4823709;29;20638;-78
2023/07/29 01:54:16;;;;;;;3.45;3.15;;;17.80;99.90;;;;;;4853834;29;19928;-79
2023/07/29 01:56:41;;;;;;;;;;;17.70;99.90;;;;;;4826246;29;20145;-78
2023/07/29 01:59:07;;;;;;;4.10;3.70;;;17.80;99.90;;;;;;4856589;29;19963;-78
2023/07/29 02:01:33;;;;;;;;;;;17.60;99.90;;;;;;4826398;29;20118;-78
2023/07/29 02:03:59;;;;;;;3.78;3.22;;;17.60;99.90;;;;;;4861067;29;19928;-78
2023/07/29 02:06:24;;;;;;;;;;;17.70;99.90;;;;;;4822513;29;20615;-78
2023/07/29 02:08:51;;;;;;;3.63;3.33;;;17.70;99.90;;;;;;4851787;29;19924;-78
2023/07/29 02:11:16;;;;;;;3.85;3.55;;;17.50;99.90;;;;;;4852998;29;20086;-78
2023/07/29 02:13:42;;;;;;;;;;;17.50;99.90;;;;;;4841159;29;20045;-78
2023/07/29 02:16:08;;;;;;;3.60;3.30;;;17.40;99.90;;;;;;4853639;29;19921;-79
2023/07/29 02:18:33;;;;;;;;;;;17.50;99.90;;;;;;4823552;29;20278;-79
2023/07/29 02:20:59;;;;;;;3.60;3.30;;;17.60;99.90;;;;;;4852004;29;19995;-79
2023/07/29 02:23:25;;;;;;;3.28;2.97;;;17.50;99.90;;;;;;4822685;29;20045;-78
2023/07/29 02:25:50;;;;;;;;;;;17.40;99.90;;;;;;4836586;29;20084;-78
2023/07/29 02:28:16;;;;;;;4.20;3.63;;;17.40;99.90;;;;;;4822526;29;19921;-79
2023/07/29 02:30:44;;;;;;;;;;;17.40;99.90;;;;;;4822979;29;20053;-78
2023/07/29 02:33:10;;;;;;;4.10;3.70;;;17.50;99.90;;;;;;4856358;29;20140;-78
2023/07/29 02:35:35;;;;;;;;;;;17.20;99.90;;;;;;4826461;29;20489;-78
2023/07/29 02:38:01;;;;;;;4.03;3.63;;;17.40;99.90;;;;;;4857078;29;20010;-78
2023/07/29 02:40:28;;;;;;;;;;;17.40;99.90;;;;;;4840980;29;20046;-79
2023/07/29 02:42:53;;;;;;;3.30;2.92;;;17.40;99.90;;;;;;4870790;29;19934;-79
2023/07/29 02:45:19;;;;;;;;;;;17.30;99.90;;;;;;4875947;29;20054;-78
2023/07/29 02:47:44;;;;;;;3.55;2.95;;;17.20;99.90;;;;;;4854433;29;19971;-79
2023/07/29 02:50:10;;;;;;;;;;;17.20;99.90;;;;;;4860363;29;20058;-79
2023/07/29 02:52:35;;;;;;;3.10;2.80;;;17.00;99.90;;;;;;4860981;29;19920;-79
2023/07/29 02:55:01;;;;;;;;;;;17.20;99.90;;;;;;4839933;29;20037;-78
2023/07/29 02:57:27;;;;;;;3.15;2.78;;;17.10;99.90;;;;;;4862991;29;19929;-79
2023/07/29 02:59:52;;;;;;;;;;;17.20;99.90;;;;;;4856981;29;20655;-79
2023/07/29 03:02:18;;;;;;;3.55;2.63;;;17.20;99.90;;;;;;4856507;29;19924;-78
2023/07/29 03:04:44;;;;;;;2.25;2.00;;;17.00;99.90;;;;;;4825999;29;20054;-78
2023/07/29 03:07:09;;;;;;;;;;;17.00;99.90;;;;;;4846201;29;20060;-78
2023/07/29 03:09:36;;;;;;;2.83;2.53;;;16.90;99.90;;;;;;4852516;29;20341;-78
2023/07/29 03:12:01;;;;;;;3.00;2.50;;;17.00;99.90;;;;;;4828166;29;20060;-78
2023/07/29 03:14:27;;;;;;;;;;;16.80;99.90;;;;;;4827679;29;20050;-78
2023/07/29 03:16:53;;;;;;;3.15;2.65;;;17.00;99.90;;;;;;4835519;29;19971;-78
2023/07/29 03:19:18;;;;;;;;;;;17.00;99.90;;;;;;4860110;29;20135;-78
2023/07/29 03:21:45;;;;;;;2.50;2.30;;;16.90;99.90;;;;;;4865234;29;20387;-79
2023/07/29 03:24:11;;;;;;;2.45;2.25;;;16.80;99.90;;;;;;4855404;29;20052;-78
2023/07/29 03:26:36;;;;;;;;;;;17.00;99.90;;;;;;4830036;29;20046;-78
2023/07/29 03:29:02;;;;;;;2.70;2.50;;;16.80;99.90;;;;;;4837721;29;19927;-79
2023/07/29 03:31:28;;;;;;;;;;;16.70;99.90;;;;;;4861299;29;20033;-78
2023/07/29 03:33:53;;;;;;;3.65;2.90;;;16.80;99.90;;;;;;4856426;29;19932;-78
2023/07/29 03:36:20;;;;;;;;;;;16.90;99.90;;;;;;4859095;29;20053;-78
2023/07/29 03:38:46;;;;;;;2.70;2.35;;;16.70;99.90;;;;;;4834744;29;19920;-79
2023/07/29 03:41:12;;;;;;;2.58;2.20;;;16.90;99.90;;;;;;4845190;29;20050;-79
2023/07/29 03:43:38;;;;;;;;;;;16.90;99.90;;;;;;4843495;29;20056;-78
2023/07/29 03:46:05;;;;;;;2.60;2.10;;;16.80;99.90;;;;;;4825109;29;19924;-79
2023/07/29 03:48:31;;;;;;;4.07;2.38;;;16.80;99.90;;;;;;4832978;29;20105;-79
2023/07/29 03:50:57;;;;;;;2.47;2.20;;;16.80;99.90;;;;;;4831389;29;20578;-79
2023/07/29 03:53:22;;;;;;;;;;;16.60;99.90;;;;;;4845337;29;20129;-78
2023/07/29 03:55:49;;;;;;;3.38;2.60;;;16.80;99.90;;;;;;4855809;29;19924;-79
2023/07/29 03:58:15;;;;;;;2.75;2.33;;;16.60;99.90;;;;;;4828073;29;20069;-78
2023/07/29 04:00:41;;;;;;;;;;;16.60;99.90;;;;;;4840729;29;21042;-79
2023/07/29 04:03:08;;;;;;;2.33;2.13;;;16.70;99.90;;;;;;4855154;29;20015;-78
2023/07/29 04:05:34;;;;;;;2.78;2.20;;;16.70;99.90;;;;;;4838535;29;20050;-79
2023/07/29 04:07:59;;;;;;;;;;;16.70;99.90;;;;;;4824814;29;20053;-79
2023/07/29 04:10:25;;;;;;;2.45;2.22;;;16.50;99.90;;;;;;4870752;29;19924;-79
2023/07/29 04:12:51;;;;;;;;;;;16.60;99.90;;;;;;4810050;29;20049;-79
2023/07/29 04:15:16;;;;;;;2.85;2.55;;;16.50;99.90;;;;;;4868326;29;20008;-79
2023/07/29 04:17:42;;;;;;;2.55;2.20;;;16.70;99.90;;;;;;4839636;29;20486;-79
2023/07/29 04:20:08;;;;;;;;;;;16.80;99.90;;;;;;4855456;29;20050;-79
2023/07/29 04:22:34;;;;;;;2.50;2.28;;;16.80;99.90;;;;;;4840790;29;19920;-79
2023/07/29 04:24:59;;;;;;;2.42;2.00;;;16.50;99.90;;;;;;4852856;29;20527;-80
2023/07/29 04:27:25;;;;;;;2.28;1.92;;;16.60;99.90;;;;;;4864991;29;20045;-79
2023/07/29 04:29:51;;;;;;;2.97;2.22;;;16.80;99.90;;;;;;4855789;29;20114;-79
2023/07/29 04:32:16;;;;;;;3.33;2.33;;;16.80;99.90;;;;;;4828473;29;20072;-79
2023/07/29 04:34:42;;;;;;;;;;;16.80;99.90;;;;;;4840183;29;20086;-79
2023/07/29 04:37:07;;;;;;;3.95;2.60;;;16.60;99.90;;;;;;4856356;29;19924;-80
2023/07/29 04:39:33;;;;;;;2.75;2.30;;;16.60;99.90;;;;;;4839561;29;20508;-79
2023/07/29 04:42:00;;;;;;;2.65;2.30;;;16.70;99.90;;;;;;4846178;29;20097;-79
2023/07/29 04:44:26;;;;;;;3.47;2.60;;;16.60;99.90;;;;;;4852729;29;20049;-79
2023/07/29 04:46:51;;;;;;;;;;;16.70;99.90;;;;;;4839398;29;20071;-79
2023/07/29 04:49:17;;;;;;;3.00;2.53;;;16.70;99.90;;;;;;4853006;29;20039;-79
2023/07/29 04:51:43;;;;;;;2.88;2.40;;;16.70;99.90;;;;;;4845120;29;20046;-79
2023/07/29 04:54:08;;;;;;;;;;;16.90;99.90;;;;;;4865969;29;20046;-79
2023/07/29 04:56:34;;;;;;;2.90;2.55;;;16.90;99.90;;;;;;4830366;29;19928;-79
2023/07/29 04:58:59;;;;;;;;;;;17.00;99.90;;;;;;4844203;29;20520;-79
2023/07/29 05:01:25;;;;;;;2.50;2.30;;;16.80;99.90;;;;;;4854852;29;19922;-79
2023/07/29 05:03:51;;;;;;;;;;;17.10;99.90;;;;;;4868814;29;20076;-79
2023/07/29 05:06:17;;;;;;;3.03;2.47;;;16.90;99.90;;;;;;4853225;29;20035;-79
2023/07/29 05:08:42;;;;;;;;;;;16.90;99.90;;;;;;4852533;29;20557;-79
2023/07/29 05:11:08;;;;;;;3.35;2.60;;;17.10;99.90;;;;;;4834477;29;19924;-78
2023/07/29 05:13:34;;;;;;;3.00;2.33;;;17.10;99.90;;;;;;4841817;29;20490;-78
2023/07/29 05:15:59;;;;;;;;;;;17.20;99.90;;;;;;4858118;29;20042;-79
2023/07/29 05:18:25;;;;;;;2.42;2.13;;;17.10;99.90;;;;;;4858798;29;20004;-79
2023/07/29 05:20:51;;;;;;;2.15;1.95;;;17.20;99.90;;;;;;4818656;29;20437;-77
2023/07/29 05:23:16;;;;;;;;;;;17.20;99.90;;;;;;4831404;29;20037;-78
2023/07/29 05:25:42;;;;;;;2.13;1.83;;;17.30;99.90;;;;;;4850191;29;20023;-79
2023/07/29 05:28:07;;;;;;;;;;;17.10;99.90;;;;;;4806969;29;20057;-78
2023/07/29 05:30:37;;;;;;;2.47;2.10;;;17.30;99.90;;;;;;4854975;29;19934;-79
2023/07/29 05:33:03;;;;;;;1.83;1.60;;;17.30;99.90;;;;;;4825119;29;20050;-78
2023/07/29 05:35:29;;;;;;;2.08;1.80;;;17.30;99.90;;;;;;4846142;29;20072;-78
2023/07/29 05:37:54;;;;;;;;;;;17.40;99.90;;;;;;4830312;29;20530;-78
2023/07/29 05:40:20;;;;;;;1.85;1.55;;;17.30;99.90;;;;;;4812277;29;19931;-78
2023/07/29 05:42:46;;;;;;;;;;;17.30;99.90;;;;;;4828133;29;20479;-78
2023/07/29 05:45:11;;;;;;;2.20;1.60;;;17.50;99.90;;;;;;4850803;29;19924;-78
2023/07/29 05:47:37;;;;;;;2.72;1.85;;;17.30;99.90;;;;;;4815634;29;20447;-78
2023/07/29 05:50:04;;;;;;;;;;;17.50;99.90;;;;;;4822705;29;20046;-78
2023/07/29 05:52:31;;;;;;;2.40;1.70;;;17.50;99.90;;;;;;4844667;29;19999;-78
2023/07/29 05:54:56;;;;;;;3.08;1.98;;;17.40;99.90;;;;;;4829849;29;20045;-78
2023/07/29 05:57:22;;;;;;;;;;;17.40;99.90;;;;;;4852080;29;20883;-78
2023/07/29 05:59:47;;;;;;;3.10;2.42;;;17.40;99.90;;;;;;4822135;29;19920;-78
2023/07/29 06:02:13;;;;;;;;;;;17.40;99.90;;;;;;4836078;29;20053;-77
2023/07/29 06:04:39;;;;;;;3.13;2.17;;;17.40;99.90;;;;;;4827000;29;19924;-78
2023/07/29 06:07:05;;;;;;;;;;;17.40;99.90;;;;;;4821369;29;20045;-78
2023/07/29 06:09:31;;;;;;;3.70;2.58;;;17.40;99.90;;;;;;4845130;29;20416;-78
2023/07/29 06:11:56;;;;;;;;;;;17.40;99.90;;;;;;4806723;29;20046;-79
2023/07/29 06:14:22;;;;;;;3.53;2.40;;;17.50;99.90;;;;;;4825188;29;20292;-79
2023/07/29 06:16:47;;;;;;;;;;;17.40;99.90;;;;;;4854782;29;20050;-78
2023/07/29 06:19:13;;;;;;;4.15;2.28;;;17.50;99.90;;;;;;4825771;29;19924;-78
2023/07/29 06:21:39;;;;;;;3.17;2.15;;;17.70;99.90;;;;;;4826281;29;20037;-78
2023/07/29 06:24:04;;;;;;;;;;;17.60;99.90;;;;;;4840169;29;20041;-78
2023/07/29 06:26:30;;;;;;;4.40;2.33;;;17.70;99.90;;;;;;4856199;29;19928;-78
2023/07/29 06:28:56;;;;;;;;;;;17.80;99.90;;;;;;4847321;29;20056;-78
2023/07/29 06:31:22;;;;;;;4.55;2.63;;;17.80;99.90;;;;;;4823375;29;19936;-79
2023/07/29 06:33:48;;;;;;;;;;;17.90;99.90;;;;;;4846448;29;20527;-80
2023/07/29 06:36:14;;;;;;;3.33;2.33;;;18.00;99.90;;;;;;4857574;29;19920;-80
2023/07/29 06:38:40;;;;;;;4.43;2.80;;;18.20;99.90;;;;;;4841936;29;20449;-80
2023/07/29 06:41:06;;;;;;;4.35;2.40;;;18.30;99.90;;;;;;4856670;29;20057;-80
2023/07/29 06:43:32;;;;;;;;;;;18.40;99.90;;;;;;4849987;29;20041;-80
2023/07/29 06:45:58;;;;;;;3.05;2.17;;;18.40;99.90;;;;;;4860722;29;20395;-79
2023/07/29 06:48:23;;;;;;;;;;;18.50;99.90;;;;;;4857657;29;20050;-80
2023/07/29 06:50:50;;;;;;;3.42;2.10;;;18.40;99.90;;;;;;4825119;29;19946;-80
2023/07/29 06:53:16;;;;;;;3.25;2.40;;;18.50;99.90;;;;;;4856800;29;20129;-80
2023/07/29 06:55:42;;;;;;;5.68;2.50;;;18.50;99.90;;;;;;4857294;29;20056;-80
2023/07/29 06:58:08;;;;;;;4.10;2.38;;;18.50;99.90;;;;;;4855464;29;20071;-80
2023/07/29 07:00:34;;;;;;;;;;;18.50;99.90;;;;;;4842095;29;20053;-80
2023/07/29 07:02:59;;;;;;;3.47;2.40;;;18.60;99.90;;;;;;4825654;29;19972;-80
2023/07/29 07:05:25;;;;;;;;;;;18.70;99.90;;;;;;4841656;29;20057;-80
2023/07/29 07:07:51;;;;;;;5.55;3.58;;;18.80;99.90;;;;;;4826209;29;20476;-80
2023/07/29 07:10:16;;;;;;;;;;;18.80;99.90;;;;;;4847570;29;20046;-80
2023/07/29 07:12:42;;;;;;;4.30;2.65;;;18.90;99.90;;;;;;4841321;29;19924;-80
2023/07/29 07:15:07;;;;;;;;;;;19.00;99.90;;;;;;4843696;29;20089;-80
2023/07/29 07:17:33;;;;;;;3.88;2.72;;;19.00;99.90;;;;;;4854051;29;19924;-80
2023/07/29 07:19:59;;;;;;;;;;;18.90;99.90;;;;;;4823151;29;20132;-80
2023/07/29 07:22:24;;;;;;;4.38;2.80;;;18.90;99.90;;;;;;4829826;29;20019;-80
2023/07/29 07:24:50;;;;;;;;;;;19.00;99.90;;;;;;4820983;29;20128;-78
2023/07/29 07:27:16;;;;;;;6.25;3.28;;;19.10;99.90;;;;;;4841218;29;19975;-79
2023/07/29 07:29:41;;;;;;;5.53;3.20;;;19.00;99.90;;;;;;4840419;29;20500;-79
2023/07/29 07:32:07;;;;;;;;;;;19.10;99.90;;;;;;4857081;29;20057;-79
2023/07/29 07:34:34;;;;;;;4.15;3.00;;;19.10;99.90;;;;;;4833482;29;20384;-79
2023/07/29 07:37:00;;;;;;;3.38;2.88;;;19.20;99.90;;;;;;4810921;29;20049;-80
2023/07/29 07:39:26;;;;;;;4.85;3.05;;;19.20;99.90;;;;;;4856007;29;20053;-79
2023/07/29 07:41:51;;;;;;;;;;;19.20;99.90;;;;;;4832271;29;20041;-79
2023/07/29 07:44:19;;;;;;;5.28;3.58;;;19.30;99.90;;;;;;4863255;29;19921;-79
2023/07/29 07:46:45;;;;;;;5.15;3.60;;;19.30;99.90;;;;;;4823612;29;20042;-79
2023/07/29 07:49:12;;;;;;;6.18;3.55;;;19.40;99.90;;;;;;4842343;29;20056;-79
2023/07/29 07:51:38;;;;;;;5.13;3.20;;;19.40;99.90;;;;;;4844925;29;20049;-79
2023/07/29 07:54:04;;;;;;;4.05;3.17;;;19.50;99.90;;;;;;4850527;29;20049;-79
2023/07/29 07:56:29;;;;;;;3.45;3.00;;;19.50;99.90;;;;;;4839563;29;20069;-79
2023/07/29 07:58:55;;;;;;;4.30;3.17;;;19.60;99.90;;;;;;4855054;29;20061;-79
2023/07/29 08:01:20;;;;;;;;;;;19.70;99.90;;;;;;4825355;29;20054;-79
2023/07/29 08:03:46;;;;;;;4.55;3.20;;;19.80;99.90;;;;;;4867804;29;20014;-79
2023/07/29 08:06:12;;;;;;;3.65;2.85;;;19.90;99.90;;;;;;4840545;29;20048;-79
2023/07/29 08:08:37;;;;;;;;;;;19.90;99.90;;;;;;4871856;29;20557;-79
2023/07/29 08:11:03;;;;;;;4.20;3.17;;;20.00;99.90;;;;;;4872551;29;20206;-79
2023/07/29 08:13:28;;;;;;;;;;;19.90;99.90;;;;;;4829612;29;20050;-79
2023/07/29 08:15:54;;;;;;;6.28;3.13;;;19.90;99.90;;;;;;4855413;29;19924;-79
2023/07/29 08:18:20;;;;;;;4.28;3.20;;;20.00;99.90;;;;;;4839841;29;20133;-79
2023/07/29 08:21:03;;;;;;;4.97;2.85;;;19.90;99.90;;;;;;4828840;29;20517;-79
2023/07/29 08:23:30;;;;;;;3.78;2.70;;;19.90;99.90;;;;;;4819667;29;20497;-79
2023/07/29 08:26:01;;;;;;;3.63;2.53;;;20.10;99.90;;;;;;4825731;29;20042;-79
2023/07/29 08:28:28;;;;;;;8.00;2.88;;;20.30;99.90;;;;;;4836066;29;20089;-79
2023/07/29 08:30:54;;;;;;;3.92;2.80;;;20.50;1.00;;;;;;4859689;29;20042;-78
2023/07/29 08:33:20;;;;;;;4.20;2.55;;;20.60;99.90;;;;;;4827561;29;20056;-78
2023/07/29 08:35:46;;;;;;;3.95;2.15;;;20.50;99.90;;;;;;4824661;29;20041;-79
2023/07/29 08:38:11;;;;;;;4.00;2.00;;;20.40;99.90;;;;;;4837070;29;20038;-79
2023/07/29 08:40:44;;;;;;;2.60;1.77;;;20.40;99.90;;;;;;4823770;29;20038;-79
2023/07/29 08:43:13;;;;;;;3.50;2.25;;;20.40;99.90;;;;;;4823944;29;20178;-79
2023/07/29 08:45:40;;;;;;;3.83;1.90;;;20.40;99.90;;;;;;4809399;29;20128;-79
2023/07/29 08:48:10;;;;;;;2.45;1.75;;;20.40;61.30;;;;;;4839252;29;20046;-79
2023/07/29 08:50:37;;;;;;;3.33;2.00;;;20.40;99.90;;;;;;4844475;29;20050;-79
2023/07/29 08:53:06;;;;;;;3.53;2.00;;;20.30;99.90;;;;;;4834462;29;20050;-78
2023/07/29 08:55:33;;;;;;;3.03;1.85;;;20.30;99.90;;;;;;4823926;29;20046;-79
2023/07/29 08:57:59;;;;;;;5.45;2.00;;;20.50;99.90;;;;;;4866903;29;20470;-79
2023/07/29 09:00:27;;;;;;;3.28;1.80;;;20.70;99.90;;;;;;4824579;29;20045;-79
2023/07/29 09:02:53;;;;;;;4.53;2.20;;;21.20;99.90;;;;;;4834668;29;20105;-79
2023/07/29 09:05:20;;;;;;;3.88;1.90;;;21.50;99.90;;;;;;4826252;29;20042;-79
2023/07/29 09:07:47;;;;;;;2.78;1.75;;;21.70;4.90;;;;;;4845314;29;20061;-79
2023/07/29 09:10:14;;;;;;;3.88;1.60;;;21.50;99.90;;;;;;4852654;29;20152;-79
2023/07/29 09:12:40;;;;;;;2.40;1.50;;;21.30;99.90;;;;;;4833818;29;20049;-79
2023/07/29 09:15:06;;;;;;;3.35;1.40;;;21.10;19.80;;;;;;4859579;29;20045;-79
2023/07/29 09:17:35;;;;;;;3.05;1.70;;;21.10;99.90;;;;;;4860154;29;20154;-79
2023/07/29 09:20:01;;;;;;;3.85;1.60;;;21.20;3.90;;;;;;4862212;29;20053;-79
2023/07/29 09:22:27;;;;;;;2.53;1.40;;;21.10;99.90;;;;;;4854114;29;20042;-80
2023/07/29 09:24:53;;;;;;;2.97;1.70;;;21.10;99.90;;;;;;4824085;29;20125;-79
2023/07/29 09:27:27;;;;;;;2.90;1.40;;;21.10;99.90;;;;;;4838447;29;20460;-79
2023/07/29 09:29:53;;;;;;;2.22;1.35;;;21.00;99.90;;;;;;4808817;29;20056;-79
2023/07/29 09:32:24;;;;;;;2.58;1.33;;;21.30;99.90;;;;;;4828846;29;20348;-79
2023/07/29 09:34:50;;;;;;;1.60;1.17;;;21.70;99.90;;;;;;4831592;29;20041;-79
2023/07/29 09:37:17;;;;;;;3.65;1.70;;;22.00;99.90;;;;;;4855340;29;20058;-79
2023/07/29 09:39:47;;;;;;;3.90;1.60;;;22.00;90.10;;;;;;4839363;29;20060;-79
2023/07/29 09:42:23;;;;;;;2.13;1.35;;;21.80;99.90;;;;;;4826652;29;20402;-78
2023/07/29 09:44:50;;;;;;;2.92;1.60;;;21.80;99.90;;;;;;4841363;29;20472;-79
2023/07/29 09:47:24;;;;;;;1.23;0.98;;;21.90;99.90;;;;;;4863464;29;20065;-78
2023/07/29 09:49:51;;;;;;;2.33;0.90;;;22.00;65.40;;;;;;4838236;29;20050;-79
2023/07/29 09:52:18;;;;;;;2.10;1.10;;;22.00;52.80;;;;;;4823045;29;20042;-79
2023/07/29 09:54:44;;;;;;;2.45;1.17;;;22.00;99.90;;;;;;4838449;29;20450;-79
2023/07/29 09:57:12;;;;;;;1.77;1.33;;;22.00;99.90;;;;;;4853539;29;20141;-79
2023/07/29 09:59:37;;;;;;;2.42;1.13;;;22.20;99.90;;;;;;4808321;29;20046;-78
2023/07/29 10:02:03;;;;;;;1.55;1.05;;;22.50;1.00;;;;;;4808523;29;20042;-78
2023/07/29 10:04:30;;;;;;;2.17;1.20;;;22.60;99.90;;;;;;4829040;29;20049;-78
2023/07/29 10:06:57;;;;;;;2.22;1.15;;;22.60;99.90;;;;;;4851296;29;20054;-78
2023/07/29 10:09:23;;;;;;;1.23;1.00;;;22.70;2.40;;;;;;4827521;29;20070;-78
2023/07/29 10:11:50;;;;;;;1.27;0.93;;;23.10;99.90;;;;;;4852042;29;20479;-78
2023/07/29 10:14:17;;;;;;;2.65;1.20;;;23.30;99.90;;;;;;4822166;29;20070;-79
2023/07/29 10:16:46;;;;;;;2.65;1.10;;;23.20;99.90;;;;;;4852230;29;20144;-79
2023/07/29 10:19:14;;;;;;;1.52;0.90;;;23.20;9.60;;;;;;4852653;29;20113;-78
2023/07/29 10:21:44;;;;;;;2.38;1.10;;;23.00;1.00;;;;;;4852551;29;20069;-77
2023/07/29 10:24:16;;;;;;;2.75;1.00;;;22.80;99.90;;;;;;4853537;29;20483;-78
2023/07/29 10:26:46;;;;;;;2.22;1.20;;;22.60;1.00;;;;;;4822995;29;20108;-81
2023/07/29 10:29:14;;;;;;;3.13;1.13;;;22.40;22.30;;;;;;4852795;29;20129;-81
2023/07/29 10:31:44;;;;;;;2.67;1.30;;;22.30;99.90;;;;;;4853540;29;20057;-79
2023/07/29 10:34:11;;;;;;;2.65;1.23;;;22.20;99.90;;;;;;4853284;29;20041;-79
2023/07/29 10:36:37;;;;;;;1.77;0.95;;;22.30;99.90;;;;;;4858590;29;20128;-80
2023/07/29 10:39:03;;;;;;;3.15;1.15;;;22.50;1.00;;;;;;4825154;29;20053;-80
2023/07/29 10:42:00;;;;;;;2.78;1.30;;;22.50;96.50;;;;;;4837961;29;20042;-80
2023/07/29 10:44:42;;;;;;;2.67;1.10;;;22.50;98.80;;;;;;4822390;29;20045;-78
2023/07/29 10:47:19;;;;;;;3.10;1.23;;;22.60;99.90;;;;;;4855975;29;20056;-77
2023/07/29 10:49:46;;;;;;;1.42;0.98;;;22.60;99.90;;;;;;4826719;29;20513;-77
2023/07/29 10:52:16;;;;;;;1.73;0.95;;;22.50;1.00;;;;;;4854994;29;20057;-77
2023/07/29 10:54:47;;;;;;;1.42;0.93;;;22.60;1.00;;;;;;4807954;29;20048;-77
2023/07/29 10:57:34;;;;;;;1.92;1.05;;;22.40;46.70;;;;;;4822848;29;20050;-78
2023/07/29 11:00:01;;;;;;;1.85;1.25;;;22.20;92.30;;;;;;4836469;29;20050;-77
2023/07/29 11:02:32;;;;;;;2.33;1.10;;;22.10;99.90;;;;;;4825787;29;20046;-77
2023/07/29 11:04:59;;;;;;;2.72;1.30;;;22.10;99.90;;;;;;4856644;29;20510;-77
2023/07/29 11:07:28;;;;;;;1.98;1.20;;;22.00;99.90;;;;;;4836135;29;20045;-78
2023/07/29 11:09:53;;;;;;;2.25;1.30;;;21.90;1.00;;;;;;4808154;29;20057;-77
2023/07/29 11:12:45;;;;;;;3.47;1.50;;;21.80;99.90;;;;;;4825937;29;20038;-77
2023/07/29 11:15:12;;;;;;;3.40;1.30;;;21.50;99.90;;;;;;4821653;29;20396;-78
2023/07/29 11:17:40;;;;;;;3.13;1.13;;;21.30;99.90;;;;;;4841793;29;20045;-79
2023/07/29 11:20:09;;;;;;;2.40;1.05;;;21.30;99.90;;;;;;4854891;29;20050;-77
2023/07/29 11:22:35;;;;;;;1.88;1.10;;;21.30;73.00;;;;;;4808746;29;20477;-77
2023/07/29 11:25:01;;;;;;;2.78;1.00;;;21.20;87.70;;;;;;4852805;29;20052;-77
2023/07/29 11:27:27;;;;;;;2.47;0.90;;;21.10;99.90;;;;;;4840254;29;20093;-77
2023/07/29 11:30:02;;;;;;;3.10;1.10;;;21.20;99.90;;;;;;4858422;29;20041;-78
2023/07/29 11:32:28;;;;;;;2.25;0.80;;;21.20;99.90;;;;;;4829231;29;20129;-78
2023/07/29 11:34:54;;;;;;;4.00;1.30;;;21.30;99.90;;;;;;4848358;29;20053;-78
2023/07/29 11:37:21;;;;;;;2.28;1.17;;;21.70;1.00;;;;;;4838503;29;20359;-79
2023/07/29 11:39:47;;;;;;;2.92;0.90;;;22.40;99.90;;;;;;4839938;29;20491;-79
2023/07/29 11:42:14;;;;;;;1.83;1.15;;;22.70;99.90;;;;;;4828147;29;20093;-79
2023/07/29 11:44:40;;;;;;;1.92;1.10;;;22.70;99.90;;;;;;4824079;29;20443;-78
2023/07/29 11:47:09;;;;;;;2.22;1.20;;;22.70;99.90;;;;;;4852940;29;20502;-78
2023/07/29 11:49:37;;;;;;;3.20;1.20;;;22.60;89.30;;;;;;4822770;29;20079;-79
2023/07/29 11:52:05;;;;;;;2.88;1.30;;;22.50;99.90;;;;;;4824400;29;20391;-79
2023/07/29 11:54:31;;;;;;;3.33;1.27;;;22.30;99.90;;;;;;4824402;29;20129;-79
2023/07/29 11:56:57;;;;;;;2.33;1.50;;;22.50;1.00;;;;;;4822841;29;20137;-80
2023/07/29 11:59:23;;;;;;;3.53;1.20;;;22.50;99.90;;;;;;4843361;29;20458;-79
2023/07/29 12:01:49;;;;;;;3.90;1.30;;;22.20;1.00;;;;;;4825255;29;20048;-79
2023/07/29 12:04:16;;;;;;;3.47;1.70;;;22.10;99.90;;;;;;4856289;29;20041;-79
2023/07/29 12:06:42;;;;;;;2.95;1.52;;;22.00;99.90;;;;;;4825062;29;20045;-79
2023/07/29 12:09:09;;;;;;;2.22;1.52;;;22.00;1.00;;;;;;4825915;29;20042;-77
2023/07/29 12:11:35;;;;;;;2.50;1.60;;;21.80;99.90;;;;;;4830007;29;20921;-79
2023/07/29 12:14:00;;;;;;;2.40;1.50;;;21.60;91.50;;;;;;4810331;29;20478;-79
2023/07/29 12:16:26;;;;;;;2.97;1.80;;;21.70;1.00;;;;;;4838766;29;20121;-79
2023/07/29 12:18:52;;;;;;;4.63;1.92;;;21.70;91.60;;;;;;4856112;29;20069;-78
2023/07/29 12:21:21;;;;;;;4.05;1.73;;;21.80;1.00;;;;;;4825815;29;20045;-79
2023/07/29 12:23:50;;;;;;;3.45;1.60;;;22.00;1.00;;;;;;4843905;29;20046;-78
2023/07/29 12:26:16;;;;;;;3.25;1.70;;;22.00;99.90;;;;;;4856575;29;20402;-78
2023/07/29 12:28:46;;;;;;;4.45;1.60;;;22.00;99.90;;;;;;4855893;29;20074;-79
2023/07/29 12:31:12;;;;;;;3.17;1.38;;;21.90;99.90;;;;;;4839925;29;20053;-79
2023/07/29 12:33:39;;;;;;;3.15;1.50;;;21.90;99.90;;;;;;4825290;29;20046;-79
2023/07/29 12:36:05;;;;;;;4.18;1.70;;;21.60;99.90;;;;;;4824672;29;20455;-79
2023/07/29 12:38:30;;;;;;;2.80;1.42;;;21.50;1.00;;;;;;4824743;29;20098;-79
2023/07/29 12:40:56;;;;;;;3.75;2.17;;;21.40;58.10;;;;;;4855381;29;20049;-79
2023/07/29 12:43:22;;;;;;;3.75;1.80;;;21.00;99.90;;;;;;4842268;29;20041;-79
2023/07/29 12:45:51;;;;;;;3.63;1.75;;;21.00;1.00;;;;;;4859766;29;20037;-78
2023/07/29 12:48:17;;;;;;;5.32;1.98;;;21.10;1.00;;;;;;4824782;29;20090;-78
2023/07/29 12:50:43;;;;;;;3.17;1.58;;;21.70;99.90;;;;;;4855780;29;20045;-78
2023/07/29 12:53:12;;;;;;;3.80;1.50;;;21.90;42.60;;;;;;4826837;29;20046;-79
2023/07/29 12:55:38;;;;;;;2.42;1.40;;;22.10;99.90;;;;;;4866950;29;20041;-79
2023/07/29 12:58:04;;;;;;;3.05;1.60;;;22.10;99.90;;;;;;4866924;29;20057;-78
2023/07/29 13:00:30;;;;;;;3.10;1.40;;;21.80;99.90;;;;;;4847549;29;20565;-79
2023/07/29 13:02:56;;;;;;;2.75;1.63;;;21.80;99.90;;;;;;4839874;29;20056;-78
2023/07/29 13:05:22;;;;;;;2.42;1.52;;;21.70;1.00;;;;;;4854599;29;20064;-78